Time;durP1;ratioP1;P1;durP2;ratioP2;P2;SDS_P1;SDS_P2;PMS_P1;PMS_P2;Temp;Humidity;BMP_temperature;BMP_pressure;BME280_temperature;BME280_humidity;BME280_pressure;Samples;Min_cycle;Max_cycle;Signal;HPM_P1;HPM_P2
2021/10/25 00:00:57;;;;;;;4.38;3.50;;;;;;;;;;4984676;28;20204;-77
2021/10/25 00:03:24;;;;;;;4.75;3.05;;;;;;;;;;4990433;28;20659;-77
2021/10/25 00:05:51;;;;;;;3.80;2.92;;;;;;;;;;4994613;28;20226;-76
2021/10/25 00:08:18;;;;;;;4.70;2.58;;;;;;;;;;4985971;28;20199;-77
2021/10/25 00:10:46;;;;;;;2.53;2.30;;;;;;;;;;4988745;28;20248;-77
2021/10/25 00:13:13;;;;;;;4.93;2.88;;;;;;;;;;4982422;28;20198;-77
2021/10/25 00:15:41;;;;;;;3.95;2.65;;;;;;;;;;4985485;28;20545;-76
2021/10/25 00:18:08;;;;;;;4.30;2.70;;;;;;;;;;4986539;28;20206;-78
2021/10/25 00:20:35;;;;;;;3.05;2.38;;;;;;;;;;4989358;28;20660;-77
2021/10/25 00:23:03;;;;;;;3.00;2.50;;;;;;;;;;4977477;28;20198;-77
2021/10/25 00:25:30;;;;;;;2.88;2.33;;;;;;;;;;4981233;28;20277;-78
2021/10/25 00:27:57;;;;;;;2.50;2.30;;;;;;;;;;4986061;28;20226;-77
2021/10/25 00:30:24;;;;;;;2.85;2.55;;;;;;;;;;4982938;28;20208;-77
2021/10/25 00:32:53;;;;;;;5.43;3.13;;;;;;;;;;4988844;28;20201;-77
2021/10/25 00:35:20;;;;;;;3.88;3.35;;;;;;;;;;4988480;28;20197;-77
2021/10/25 00:37:47;;;;;;;3.47;3.17;;;;;;;;;;4988858;28;20727;-77
2021/10/25 00:40:14;;;;;;;3.70;2.38;;;;;;;;;;4984407;28;20267;-78
2021/10/25 00:42:41;;;;;;;4.50;2.65;;;;;;;;;;4982998;28;20691;-79
2021/10/25 00:45:09;;;;;;;5.35;2.85;;;;;;;;;;4988952;28;20186;-80
2021/10/25 00:47:36;;;;;;;3.85;2.97;;;;;;;;;;4992419;28;20757;-79
2021/10/25 00:50:04;;;;;;;2.50;2.30;;;;;;;;;;4991183;28;20251;-79
2021/10/25 00:52:42;;;;;;;2.50;2.30;;;;;;;;;;4989101;28;20244;-79
2021/10/25 00:55:11;;;;;;;2.58;2.15;;;;;;;;;;4979449;28;20213;-79
2021/10/25 00:57:38;;;;;;;3.60;2.92;;;;;;;;;;4992216;28;20194;-80
2021/10/25 01:00:06;;;;;;;2.70;2.50;;;;;;;;;;4992210;28;20659;-80
2021/10/25 01:02:33;;;;;;;2.55;2.28;;;;;;;;;;4989013;28;20202;-79
2021/10/25 01:05:00;;;;;;;2.80;2.13;;;;;;;;;;4984883;28;20190;-79
2021/10/25 01:07:29;;;;;;;3.80;3.00;;;;;;;;;;4990512;28;20225;-79
2021/10/25 01:09:56;;;;;;;3.00;2.70;;;;;;;;;;4991843;28;20201;-80
2021/10/25 01:12:23;;;;;;;3.03;2.72;;;;;;;;;;4985797;28;20225;-80
2021/10/25 01:14:50;;;;;;;4.07;2.42;;;;;;;;;;4976418;28;20657;-80
2021/10/25 01:17:17;;;;;;;3.13;2.65;;;;;;;;;;4986230;28;20209;-80
2021/10/25 01:19:45;;;;;;;4.32;3.03;;;;;;;;;;4992408;28;20212;-80
2021/10/25 01:22:13;;;;;;;4.35;2.80;;;;;;;;;;4987160;28;20220;-80
2021/10/25 01:24:41;;;;;;;3.60;2.80;;;;;;;;;;4979875;28;20577;-80
2021/10/25 01:27:08;;;;;;;2.63;2.42;;;;;;;;;;4988264;28;20234;-80
2021/10/25 01:29:36;;;;;;;2.55;2.35;;;;;;;;;;4992429;28;20235;-80
2021/10/25 01:32:03;;;;;;;3.17;2.10;;;;;;;;;;4990192;28;20208;-80
2021/10/25 01:34:30;;;;;;;2.55;2.33;;;;;;;;;;4985409;28;20289;-80
2021/10/25 01:36:57;;;;;;;3.00;2.15;;;;;;;;;;4987191;28;20205;-80
2021/10/25 01:39:26;;;;;;;3.95;2.63;;;;;;;;;;4985520;28;20200;-79
2021/10/25 01:41:53;;;;;;;3.25;2.78;;;;;;;;;;4985752;28;20190;-80
2021/10/25 01:44:20;;;;;;;2.63;2.42;;;;;;;;;;4991071;28;20197;-77
2021/10/25 01:46:48;;;;;;;4.55;2.33;;;;;;;;;;4991704;28;20224;-80
2021/10/25 01:49:15;;;;;;;2.72;2.53;;;;;;;;;;4990111;28;20189;-81
2021/10/25 01:51:42;;;;;;;2.85;2.40;;;;;;;;;;4978189;28;20238;-80
2021/10/25 01:54:09;;;;;;;4.43;2.60;;;;;;;;;;4981241;28;20328;-79
2021/10/25 01:56:38;;;;;;;2.45;2.15;;;;;;;;;;4975336;28;20193;-79
2021/10/25 01:59:05;;;;;;;2.53;2.30;;;;;;;;;;4989799;28;20197;-79
2021/10/25 02:01:32;;;;;;;3.15;2.90;;;;;;;;;;4982911;28;20197;-79
2021/10/25 02:03:59;;;;;;;4.05;2.53;;;;;;;;;;4975140;28;20201;-78
2021/10/25 02:06:26;;;;;;;2.92;2.72;;;;;;;;;;4989978;28;20297;-78
2021/10/25 02:08:54;;;;;;;2.60;2.40;;;;;;;;;;4981944;28;20584;-77
2021/10/25 02:11:21;;;;;;;2.42;2.22;;;;;;;;;;4979063;28;20195;-78
2021/10/25 02:13:50;;;;;;;2.67;2.47;;;;;;;;;;4980310;28;20197;-80
2021/10/25 02:16:17;;;;;;;2.83;2.47;;;;;;;;;;4984994;28;20202;-80
2021/10/25 02:18:44;;;;;;;3.50;2.45;;;;;;;;;;4980429;28;20249;-79
2021/10/25 02:21:12;;;;;;;2.35;2.15;;;;;;;;;;4980367;28;20286;-79
2021/10/25 02:23:39;;;;;;;3.63;2.08;;;;;;;;;;4978978;28;20670;-79
2021/10/25 02:26:06;;;;;;;4.78;2.65;;;;;;;;;;4991014;28;20204;-79
2021/10/25 02:28:34;;;;;;;3.80;3.17;;;;;;;;;;4989957;28;20225;-79
2021/10/25 02:31:02;;;;;;;2.35;2.15;;;;;;;;;;4980275;28;20285;-79
2021/10/25 02:33:30;;;;;;;2.67;2.47;;;;;;;;;;4985558;28;20208;-79
2021/10/25 02:35:57;;;;;;;3.00;2.80;;;;;;;;;;4985049;28;20198;-79
2021/10/25 02:38:24;;;;;;;3.30;2.40;;;;;;;;;;4989996;28;20600;-79
2021/10/25 02:40:51;;;;;;;2.25;2.05;;;;;;;;;;4984655;28;20565;-80
2021/10/25 02:43:18;;;;;;;2.42;2.17;;;;;;;;;;4979269;28;20197;-81
2021/10/25 02:45:45;;;;;;;2.97;2.45;;;;;;;;;;4990801;28;20204;-81
2021/10/25 02:48:13;;;;;;;4.10;2.42;;;;;;;;;;4989532;28;20214;-80
2021/10/25 02:50:41;;;;;;;3.20;2.30;;;;;;;;;;4988724;28;20197;-77
2021/10/25 02:53:09;;;;;;;3.10;2.78;;;;;;;;;;4979888;28;20272;-77
2021/10/25 02:55:36;;;;;;;3.08;2.78;;;;;;;;;;4984250;28;20301;-77
2021/10/25 02:58:03;;;;;;;3.47;2.45;;;;;;;;;;4994447;28;20198;-79
2021/10/25 03:00:31;;;;;;;2.97;2.67;;;;;;;;;;4988510;28;20205;-80
2021/10/25 03:02:58;;;;;;;3.83;2.20;;;;;;;;;;4985627;28;20677;-81
2021/10/25 03:05:26;;;;;;;2.97;2.45;;;;;;;;;;4991129;28;20202;-79
2021/10/25 03:07:53;;;;;;;2.67;2.40;;;;;;;;;;4992975;28;20339;-79
2021/10/25 03:10:20;;;;;;;4.93;2.58;;;;;;;;;;4990978;28;20194;-79
2021/10/25 03:12:47;;;;;;;3.47;2.25;;;;;;;;;;4985644;28;20569;-79
2021/10/25 03:15:15;;;;;;;5.20;2.60;;;;;;;;;;4992818;28;20200;-79
2021/10/25 03:17:43;;;;;;;4.95;2.90;;;;;;;;;;4981625;28;20202;-79
2021/10/25 03:20:12;;;;;;;2.80;2.40;;;;;;;;;;4983695;28;20201;-78
2021/10/25 03:22:40;;;;;;;3.70;2.55;;;;;;;;;;4988797;28;20197;-78
2021/10/25 03:25:08;;;;;;;2.85;2.65;;;;;;;;;;4993402;28;20221;-77
2021/10/25 03:27:36;;;;;;;3.35;2.75;;;;;;;;;;4986679;28;20226;-79
2021/10/25 03:30:03;;;;;;;2.58;2.38;;;;;;;;;;4988096;28;20272;-79
2021/10/25 03:32:30;;;;;;;2.50;2.30;;;;;;;;;;4986453;28;20197;-80
2021/10/25 03:34:57;;;;;;;3.35;3.05;;;;;;;;;;4985360;28;20198;-77
2021/10/25 03:37:25;;;;;;;2.35;2.10;;;;;;;;;;4978811;28;20201;-79
2021/10/25 03:39:53;;;;;;;2.78;2.45;;;;;;;;;;4986149;28;20288;-80
2021/10/25 03:42:26;;;;;;;4.80;3.25;;;;;;;;;;4992476;28;20209;-79
2021/10/25 03:45:00;;;;;;;3.13;2.50;;;;;;;;;;4984851;28;20195;-79
2021/10/25 03:47:30;;;;;;;4.18;3.15;;;;;;;;;;4990609;28;20276;-80
2021/10/25 03:50:05;;;;;;;2.70;2.50;;;;;;;;;;4986606;28;20201;-79
2021/10/25 03:52:36;;;;;;;3.33;2.75;;;;;;;;;;4988111;28;20205;-80
2021/10/25 03:55:11;;;;;;;2.58;2.33;;;;;;;;;;4993080;28;20244;-79
2021/10/25 04:03:41;;;;;;;3.45;2.53;;;;;;;;;;4983017;28;20340;-78
2021/10/25 04:25:47;;;;;;;8.65;4.05;;;;;;;;;;4982881;28;20617;-77
2021/10/25 04:28:18;;;;;;;3.38;2.60;;;;;;;;;;4992208;28;20225;-78
2021/10/25 04:30:52;;;;;;;3.58;2.42;;;;;;;;;;4988196;28;20229;-77
2021/10/25 04:33:19;;;;;;;3.00;2.80;;;;;;;;;;4985576;28;20202;-79
2021/10/25 04:35:46;;;;;;;3.55;2.65;;;;;;;;;;4982262;28;20209;-79
2021/10/25 04:38:13;;;;;;;4.00;2.28;;;;;;;;;;4974869;28;20546;-78
2021/10/25 04:40:40;;;;;;;3.58;2.92;;;;;;;;;;4988279;28;20206;-79
2021/10/25 04:43:08;;;;;;;2.78;2.53;;;;;;;;;;4987901;28;20193;-78
2021/10/25 04:45:36;;;;;;;4.03;3.17;;;;;;;;;;4975735;28;20198;-80
2021/10/25 04:48:03;;;;;;;4.30;3.35;;;;;;;;;;4980857;28;20237;-79
2021/10/25 04:50:30;;;;;;;3.45;3.08;;;;;;;;;;4990205;28;20197;-79
2021/10/25 04:52:57;;;;;;;5.13;2.75;;;;;;;;;;4990781;28;20197;-79
2021/10/25 04:55:24;;;;;;;2.63;2.42;;;;;;;;;;4993741;28;20593;-79
2021/10/25 04:57:51;;;;;;;3.55;3.15;;;;;;;;;;4993790;28;20213;-79
2021/10/25 05:00:18;;;;;;;6.47;3.00;;;;;;;;;;4991070;28;20206;-78
2021/10/25 05:02:47;;;;;;;3.72;3.35;;;;;;;;;;4980291;28;20205;-78
2021/10/25 05:05:14;;;;;;;5.57;3.10;;;;;;;;;;4992881;28;20193;-77
2021/10/25 05:07:41;;;;;;;4.13;3.72;;;;;;;;;;4992384;28;20232;-79
2021/10/25 05:10:09;;;;;;;2.90;2.70;;;;;;;;;;4991996;28;20197;-78
2021/10/25 05:12:36;;;;;;;4.15;3.25;;;;;;;;;;4986873;28;20580;-77
2021/10/25 05:15:03;;;;;;;2.97;2.75;;;;;;;;;;4989156;28;20197;-78
2021/10/25 05:17:30;;;;;;;4.35;3.22;;;;;;;;;;4975668;28;20628;-80
2021/10/25 05:19:59;;;;;;;3.70;3.40;;;;;;;;;;4985462;28;20201;-78
2021/10/25 05:22:26;;;;;;;3.67;3.38;;;;;;;;;;4989355;28;20198;-79
2021/10/25 05:24:53;;;;;;;4.03;2.88;;;;;;;;;;4987710;28;20199;-78
2021/10/25 05:27:21;;;;;;;5.88;2.88;;;;;;;;;;4992403;28;20202;-78
2021/10/25 05:29:48;;;;;;;5.07;3.50;;;;;;;;;;4985770;28;20260;-79
2021/10/25 05:32:15;;;;;;;6.40;3.60;;;;;;;;;;4982296;28;20191;-79
2021/10/25 05:34:42;;;;;;;3.08;2.78;;;;;;;;;;4988222;28;20202;-77
2021/10/25 05:37:11;;;;;;;4.63;3.15;;;;;;;;;;4988943;28;20216;-77
2021/10/25 05:39:38;;;;;;;3.10;2.80;;;;;;;;;;4988522;28;20209;-77
2021/10/25 05:42:07;;;;;;;3.08;2.80;;;;;;;;;;4980842;28;20198;-77
2021/10/25 05:44:35;;;;;;;3.42;3.13;;;;;;;;;;4986002;28;20210;-78
2021/10/25 05:47:02;;;;;;;6.63;3.45;;;;;;;;;;4985336;28;20571;-77
2021/10/25 05:49:29;;;;;;;5.25;2.70;;;;;;;;;;4990308;28;20221;-80
2021/10/25 05:51:56;;;;;;;3.00;2.72;;;;;;;;;;4989131;28;20691;-78
2021/10/25 05:54:26;;;;;;;4.45;3.50;;;;;;;;;;4989713;28;20227;-78
2021/10/25 05:56:53;;;;;;;6.60;3.00;;;;;;;;;;4984174;28;20197;-76
2021/10/25 05:59:24;;;;;;;6.60;3.40;;;;;;;;;;4986185;28;20498;-76
2021/10/25 06:01:58;;;;;;;5.07;3.75;;;;;;;;;;4985402;28;20201;-76
2021/10/25 06:04:25;;;;;;;3.72;2.90;;;;;;;;;;4983196;28;20236;-76
2021/10/25 06:06:52;;;;;;;3.75;2.78;;;;;;;;;;4985141;28;20757;-76
2021/10/25 06:09:21;;;;;;;3.20;2.90;;;;;;;;;;4989805;28;20248;-77
2021/10/25 06:11:49;;;;;;;5.80;3.90;;;;;;;;;;4988878;28;20201;-76
2021/10/25 06:14:26;;;;;;;4.60;3.53;;;;;;;;;;4983461;28;20415;-77
2021/10/25 06:16:57;;;;;;;5.03;3.13;;;;;;;;;;4979871;28;20205;-78
2021/10/25 06:19:25;;;;;;;4.47;3.55;;;;;;;;;;4983285;28;20612;-77
2021/10/25 06:21:52;;;;;;;4.43;3.55;;;;;;;;;;4984886;28;20557;-77
2021/10/25 06:24:19;;;;;;;3.97;3.65;;;;;;;;;;4983487;28;20698;-76
2021/10/25 06:26:46;;;;;;;5.72;3.67;;;;;;;;;;4988693;28;20197;-77
2021/10/25 06:29:14;;;;;;;4.18;3.60;;;;;;;;;;4981669;28;20584;-77
2021/10/25 06:31:42;;;;;;;4.82;4.00;;;;;;;;;;4992861;28;20224;-78
2021/10/25 06:34:19;;;;;;;5.95;2.80;;;;;;;;;;4985395;28;20499;-78
2021/10/25 06:36:49;;;;;;;3.83;3.25;;;;;;;;;;4990148;28;20272;-78
2021/10/25 06:39:22;;;;;;;5.32;3.70;;;;;;;;;;4987900;28;20201;-78
2021/10/25 06:41:49;;;;;;;3.20;2.90;;;;;;;;;;4993050;28;20354;-79
2021/10/25 06:44:17;;;;;;;3.50;3.20;;;;;;;;;;4994981;28;20204;-78
2021/10/25 06:46:45;;;;;;;4.15;2.70;;;;;;;;;;4991977;28;20201;-79
2021/10/25 06:49:12;;;;;;;8.60;3.40;;;;;;;;;;4993126;28;20277;-78
2021/10/25 06:51:39;;;;;;;4.20;3.20;;;;;;;;;;4996305;28;20193;-79
2021/10/25 06:54:06;;;;;;;4.18;3.78;;;;;;;;;;4984302;28;20205;-81
2021/10/25 06:56:34;;;;;;;7.32;3.72;;;;;;;;;;4983025;28;20212;-80
2021/10/25 06:59:01;;;;;;;5.47;4.60;;;;;;;;;;4994207;28;20676;-80
2021/10/25 07:01:30;;;;;;;4.30;3.85;;;;;;;;;;4995554;28;20190;-80
2021/10/25 07:03:57;;;;;;;5.65;3.70;;;;;;;;;;4988696;28;20289;-79
2021/10/25 07:06:24;;;;;;;5.18;3.30;;;;;;;;;;4991626;28;20272;-80
2021/10/25 07:08:53;;;;;;;9.15;2.95;;;;;;;;;;4990619;28;20221;-80
2021/10/25 07:11:20;;;;;;;4.28;3.85;;;;;;;;;;4987082;28;20221;-81
2021/10/25 07:13:48;;;;;;;4.00;3.60;;;;;;;;;;4987505;28;20233;-81
2021/10/25 07:16:19;;;;;;;4.93;3.15;;;;;;;;;;4989405;28;20285;-81
2021/10/25 07:19:00;;;;;;;6.07;3.13;;;;;;;;;;4988508;28;20219;-80
2021/10/25 07:21:52;;;;;;;3.88;3.55;;;;;;;;;;4987657;28;20715;-83
2021/10/25 07:27:26;;;;;;;5.30;3.63;;;;;;;;;;4964702;28;20770;-81
2021/10/25 08:00:27;;;;;;;4.55;3.50;;;;;;;;;;4991942;28;20213;-80
2021/10/25 08:03:23;;;;;;;5.55;3.90;;;;;;;;;;4986650;28;20194;-83
2021/10/25 08:05:59;;;;;;;5.32;3.80;;;;;;;;;;4986027;28;20229;-81
2021/10/25 08:11:10;;;;;;;3.28;2.97;;;;;;;;;;4979548;28;20198;-87
2021/10/25 08:13:40;;;;;;;4.03;2.85;;;;;;;;;;4990018;28;20289;-86
2021/10/25 08:16:13;;;;;;;3.50;3.17;;;;;;;;;;4986406;28;20214;-85
2021/10/25 08:21:39;;;;;;;3.97;3.08;;;;;;;;;;4930319;29;20206;-86
2021/10/25 08:24:08;;;;;;;2.75;2.30;;;;;;;;;;4926458;29;20295;-86
2021/10/25 08:26:35;;;;;;;3.10;2.50;;;;;;;;;;4959754;28;20205;-84
2021/10/25 08:29:03;;;;;;;4.20;2.70;;;;;;;;;;4989090;28;20226;-83
2021/10/25 08:31:33;;;;;;;3.97;3.60;;;;;;;;;;4986404;28;20236;-83
2021/10/25 08:39:50;;;;;;;4.32;2.95;;;;;;;;;;4985774;28;20208;-82
2021/10/25 08:42:18;;;;;;;4.70;2.65;;;;;;;;;;4990928;28;20205;-85
2021/10/25 08:44:47;;;;;;;2.17;1.75;;;;;;;;;;4991649;28;20198;-84
2021/10/25 08:47:17;;;;;;;3.13;2.63;;;;;;;;;;4977257;28;20205;-84
2021/10/25 08:49:44;;;;;;;2.30;2.10;;;;;;;;;;4987297;28;20276;-84
2021/10/25 08:52:12;;;;;;;3.47;2.60;;;;;;;;;;4986434;28;20224;-84
2021/10/25 08:54:41;;;;;;;2.38;2.10;;;;;;;;;;4990337;28;20201;-84
2021/10/25 08:57:09;;;;;;;2.33;2.13;;;;;;;;;;4995295;28;20205;-84
2021/10/25 08:59:36;;;;;;;2.58;2.35;;;;;;;;;;4985895;28;20202;-85
2021/10/25 09:02:06;;;;;;;2.67;2.22;;;;;;;;;;4991513;28;20197;-86
2021/10/25 09:04:33;;;;;;;2.60;2.40;;;;;;;;;;4989419;28;20201;-84
2021/10/25 09:07:01;;;;;;;2.70;2.30;;;;;;;;;;4993314;28;20236;-85
2021/10/25 09:09:28;;;;;;;2.72;2.40;;;;;;;;;;4986894;28;20231;-84
2021/10/25 09:12:04;;;;;;;3.22;2.63;;;;;;;;;;4989559;28;20194;-85
2021/10/25 09:14:31;;;;;;;4.85;2.85;;;;;;;;;;4984855;28;20280;-86
2021/10/25 09:17:00;;;;;;;3.67;2.20;;;;;;;;;;4988853;28;20206;-87
2021/10/25 09:19:30;;;;;;;3.10;2.20;;;;;;;;;;4986758;28;20198;-81
2021/10/25 09:22:05;;;;;;;2.13;1.90;;;;;;;;;;4987643;28;20194;-90
2021/10/25 09:24:32;;;;;;;4.88;2.58;;;;;;;;;;4989268;28;20193;-88
2021/10/25 09:27:04;;;;;;;2.20;1.92;;;;;;;;;;4989133;28;20221;-88
2021/10/25 09:29:34;;;;;;;6.60;4.53;;;;;;;;;;4986478;28;20209;-80
2021/10/25 09:32:05;;;;;;;2.92;2.15;;;;;;;;;;4986132;28;20648;-81
2021/10/25 09:34:37;;;;;;;2.97;2.30;;;;;;;;;;4993730;28;20205;-81
2021/10/25 09:37:08;;;;;;;2.42;2.05;;;;;;;;;;4991396;28;20217;-81
2021/10/25 09:39:43;;;;;;;2.95;2.65;;;;;;;;;;4988525;28;20205;-81
2021/10/25 09:50:45;;;;;;;3.25;2.58;;;;;;;;;;4984487;28;20244;-80
2021/10/25 09:53:13;;;;;;;4.03;1.65;;;;;;;;;;4989563;28;20224;-80
2021/10/25 09:55:44;;;;;;;2.22;1.90;;;;;;;;;;4988434;28;20193;-82
2021/10/25 09:58:17;;;;;;;2.45;1.98;;;;;;;;;;4991686;28;20221;-82
2021/10/25 10:00:46;;;;;;;1.90;1.70;;;;;;;;;;4993204;28;20595;-83
2021/10/25 10:03:13;;;;;;;2.30;2.10;;;;;;;;;;4991432;28;20556;-83
2021/10/25 10:05:41;;;;;;;3.00;2.40;;;;;;;;;;4991168;28;20964;-83
2021/10/25 10:08:09;;;;;;;3.17;1.88;;;;;;;;;;4990358;28;20254;-83
2021/10/25 10:10:36;;;;;;;2.83;2.55;;;;;;;;;;4987760;28;20221;-83
2021/10/25 10:13:04;;;;;;;1.98;1.80;;;;;;;;;;4986869;28;20190;-84
2021/10/25 10:15:34;;;;;;;2.45;2.10;;;;;;;;;;4983960;28;20236;-83
2021/10/25 10:18:06;;;;;;;2.75;1.70;;;;;;;;;;4980373;28;20198;-81
2021/10/25 10:20:34;;;;;;;4.20;2.67;;;;;;;;;;4985240;28;20213;-83
2021/10/25 10:23:04;;;;;;;2.67;1.67;;;;;;;;;;4981831;28;20201;-83
2021/10/25 10:25:32;;;;;;;2.60;2.40;;;;;;;;;;4984016;28;20214;-82
2021/10/25 10:28:02;;;;;;;4.63;2.47;;;;;;;;;;4984830;28;20193;-82
2021/10/25 10:30:30;;;;;;;2.10;1.83;;;;;;;;;;4991235;28;20256;-83
2021/10/25 10:33:01;;;;;;;2.92;2.03;;;;;;;;;;4988406;28;20365;-83
2021/10/25 10:35:38;;;;;;;3.15;2.17;;;;;;;;;;4979341;28;20597;-82
2021/10/25 10:38:05;;;;;;;3.78;2.40;;;;;;;;;;4989651;28;20193;-81
2021/10/25 10:40:37;;;;;;;2.90;2.60;;;;;;;;;;4992733;28;20202;-83
2021/10/25 10:43:05;;;;;;;2.42;1.88;;;;;;;;;;4990729;28;20201;-83
2021/10/25 10:45:32;;;;;;;3.58;1.95;;;;;;;;;;4982154;28;20240;-82
2021/10/25 10:48:01;;;;;;;6.40;2.05;;;;;;;;;;4990533;28;20197;-83
2021/10/25 10:50:34;;;;;;;2.30;2.00;;;;;;;;;;4988295;28;20225;-83
2021/10/25 10:53:03;;;;;;;4.70;2.00;;;;;;;;;;4982206;28;20212;-84
2021/10/25 10:55:38;;;;;;;2.72;1.98;;;;;;;;;;4977480;28;20249;-83
2021/10/25 11:01:00;;;;;;;1.70;1.60;;;;;;;;;;4979822;28;20299;-82
2021/10/25 11:03:29;;;;;;;1.83;1.50;;;;;;;;;;4987112;28;20202;-77
2021/10/25 11:06:00;;;;;;;3.65;2.20;;;;;;;;;;4985161;28;20305;-83
2021/10/25 11:08:30;;;;;;;1.50;1.30;;;;;;;;;;4987584;28;20288;-78
2021/10/25 11:10:59;;;;;;;2.35;1.90;;;;;;;;;;4982193;28;20221;-78
2021/10/25 11:13:29;;;;;;;2.83;1.83;;;;;;;;;;4974087;28;20264;-76
2021/10/25 11:16:00;;;;;;;1.50;1.40;;;;;;;;;;4987035;28;20292;-80
2021/10/25 11:18:29;;;;;;;1.73;1.60;;;;;;;;;;4983558;28;20658;-76
2021/10/25 11:21:16;;;;;;;1.75;1.50;;;;;;;;;;4988837;28;20198;-76
2021/10/25 11:23:44;;;;;;;2.15;1.95;;;;;;;;;;4987921;28;20197;-76
2021/10/25 11:26:12;;;;;;;2.50;2.05;;;;;;;;;;4987292;28;20240;-77
2021/10/25 11:28:39;;;;;;;3.40;2.38;;;;;;;;;;4982519;28;20201;-78
2021/10/25 11:31:06;;;;;;;2.80;1.58;;;;;;;;;;4980808;28;20585;-77
2021/10/25 11:33:35;;;;;;;2.28;1.95;;;;;;;;;;4988909;28;20193;-77
2021/10/25 11:36:03;;;;;;;2.75;1.55;;;;;;;;;;4979297;28;20198;-78
2021/10/25 11:38:32;;;;;;;1.60;1.50;;;;;;;;;;4986965;28;20547;-76
2021/10/25 11:41:04;;;;;;;3.25;2.00;;;;;;;;;;4992213;28;20324;-77
2021/10/25 11:43:31;;;;;;;2.03;1.80;;;;;;;;;;4983511;28;20260;-81
2021/10/25 11:45:59;;;;;;;2.70;2.13;;;;;;;;;;4982570;28;20194;-79
2021/10/25 11:48:30;;;;;;;6.50;1.95;;;;;;;;;;4988353;28;20197;-79
2021/10/25 11:51:00;;;;;;;3.38;1.90;;;;;;;;;;4993825;28;20272;-77
2021/10/25 11:53:29;;;;;;;3.13;1.90;;;;;;;;;;4980054;28;20277;-78
2021/10/25 11:55:58;;;;;;;3.35;1.55;;;;;;;;;;4992233;28;20214;-79
2021/10/25 11:58:27;;;;;;;2.17;1.83;;;;;;;;;;4989735;28;20189;-78
2021/10/25 12:01:02;;;;;;;3.40;1.77;;;;;;;;;;4992897;28;20812;-79
2021/10/25 12:03:29;;;;;;;2.15;1.70;;;;;;;;;;4989497;28;20216;-76
2021/10/25 12:05:57;;;;;;;3.35;1.73;;;;;;;;;;4981000;28;20217;-79
2021/10/25 12:08:24;;;;;;;2.50;1.70;;;;;;;;;;4989823;28;20208;-79
2021/10/25 12:10:52;;;;;;;2.78;1.92;;;;;;;;;;4986844;28;20224;-76
2021/10/25 12:13:21;;;;;;;3.55;1.40;;;;;;;;;;4988984;28;20210;-79
2021/10/25 12:15:50;;;;;;;2.42;1.80;;;;;;;;;;4991290;28;20209;-78
2021/10/25 12:18:20;;;;;;;3.17;2.08;;;;;;;;;;4988605;28;20197;-77
2021/10/25 12:20:48;;;;;;;2.38;1.92;;;;;;;;;;4976440;28;20252;-76
2021/10/25 12:23:17;;;;;;;3.70;2.00;;;;;;;;;;4985800;28;20209;-77
2021/10/25 12:25:45;;;;;;;2.90;2.25;;;;;;;;;;4989259;28;20194;-77
2021/10/25 12:28:13;;;;;;;3.75;1.67;;;;;;;;;;4992196;28;20221;-75
2021/10/25 12:30:42;;;;;;;2.35;2.10;;;;;;;;;;4993234;28;20224;-76
2021/10/25 12:33:09;;;;;;;2.33;2.05;;;;;;;;;;4983560;28;20244;-78
2021/10/25 12:35:38;;;;;;;4.35;2.35;;;;;;;;;;4991537;28;20198;-79
2021/10/25 12:38:06;;;;;;;1.65;1.50;;;;;;;;;;4989322;28;20194;-77
2021/10/25 12:40:38;;;;;;;5.40;2.10;;;;;;;;;;4983154;28;20214;-77
2021/10/25 12:43:06;;;;;;;3.50;1.85;;;;;;;;;;4987735;28;20204;-75
2021/10/25 12:45:39;;;;;;;3.55;1.90;;;;;;;;;;4983280;28;20198;-76
2021/10/25 12:48:08;;;;;;;2.10;1.83;;;;;;;;;;4987187;28;20194;-76
2021/10/25 12:50:37;;;;;;;5.65;2.17;;;;;;;;;;4991044;28;20590;-76
2021/10/25 12:53:05;;;;;;;3.20;2.10;;;;;;;;;;4980307;28;20640;-74
2021/10/25 12:55:32;;;;;;;2.30;1.60;;;;;;;;;;4987230;28;20233;-75
2021/10/25 12:57:59;;;;;;;2.05;1.83;;;;;;;;;;4986382;28;20195;-75
2021/10/25 13:00:26;;;;;;;3.35;1.85;;;;;;;;;;4974955;28;20209;-75
2021/10/25 13:02:54;;;;;;;2.88;1.60;;;;;;;;;;4987061;28;20197;-75
2021/10/25 13:05:23;;;;;;;2.60;2.00;;;;;;;;;;4992451;28;20213;-76
2021/10/25 13:07:52;;;;;;;1.52;1.42;;;;;;;;;;4991321;28;20205;-75
2021/10/25 13:10:20;;;;;;;2.25;2.00;;;;;;;;;;4977293;28;20245;-74
2021/10/25 13:12:48;;;;;;;2.65;1.60;;;;;;;;;;4981233;28;20205;-76
2021/10/25 13:15:15;;;;;;;2.15;1.70;;;;;;;;;;4990144;28;20205;-76
2021/10/25 13:17:42;;;;;;;6.03;1.88;;;;;;;;;;4987261;28;20235;-76
2021/10/25 13:20:11;;;;;;;2.35;1.90;;;;;;;;;;4991739;28;20205;-79
2021/10/25 13:22:39;;;;;;;2.10;1.90;;;;;;;;;;4982810;28;20212;-75
2021/10/25 13:25:07;;;;;;;3.40;2.03;;;;;;;;;;4983685;28;20206;-79
2021/10/25 13:27:35;;;;;;;3.35;1.98;;;;;;;;;;4981287;28;20267;-77
2021/10/25 13:30:03;;;;;;;2.38;1.90;;;;;;;;;;4992496;28;20225;-75
2021/10/25 13:32:30;;;;;;;10.55;2.00;;;;;;;;;;4987357;28;20229;-74
2021/10/25 13:34:57;;;;;;;2.42;1.90;;;;;;;;;;4987251;28;20197;-75
2021/10/25 13:37:24;;;;;;;1.98;1.65;;;;;;;;;;4991994;28;20288;-77
2021/10/25 13:39:53;;;;;;;2.65;1.55;;;;;;;;;;4985053;28;20208;-75
2021/10/25 13:42:20;;;;;;;1.98;1.77;;;;;;;;;;4989123;28;20193;-76
2021/10/25 13:44:47;;;;;;;2.70;1.80;;;;;;;;;;4982019;28;20536;-77
2021/10/25 13:47:14;;;;;;;6.80;1.65;;;;;;;;;;4992642;28;20193;-77
2021/10/25 13:49:42;;;;;;;2.15;1.73;;;;;;;;;;4990552;28;20229;-76
2021/10/25 13:52:09;;;;;;;3.55;1.70;;;;;;;;;;4991344;28;20225;-77
2021/10/25 13:54:37;;;;;;;2.58;1.92;;;;;;;;;;4990453;28;20193;-75
2021/10/25 13:57:08;;;;;;;3.90;1.80;;;;;;;;;;4992251;28;20198;-77
2021/10/25 13:59:36;;;;;;;3.25;1.70;;;;;;;;;;4991108;28;20240;-76
2021/10/25 14:02:05;;;;;;;1.90;1.60;;;;;;;;;;4986479;28;20205;-76
2021/10/25 14:04:32;;;;;;;2.80;1.75;;;;;;;;;;4980591;28;20201;-77
2021/10/25 14:07:01;;;;;;;2.08;1.85;;;;;;;;;;4992278;28;20225;-77
2021/10/25 14:09:28;;;;;;;2.40;1.70;;;;;;;;;;4989162;28;20194;-77
2021/10/25 14:11:58;;;;;;;2.28;1.90;;;;;;;;;;4989124;28;20217;-76
2021/10/25 14:14:29;;;;;;;3.63;2.72;;;;;;;;;;4989896;28;20201;-77
2021/10/25 14:16:56;;;;;;;2.95;2.00;;;;;;;;;;4988964;28;20198;-76
2021/10/25 14:19:24;;;;;;;2.00;1.80;;;;;;;;;;4981877;28;20197;-77
2021/10/25 14:21:51;;;;;;;2.03;1.83;;;;;;;;;;4986899;28;20200;-76
2021/10/25 14:24:19;;;;;;;3.08;1.92;;;;;;;;;;4987926;28;20607;-80
2021/10/25 14:26:46;;;;;;;2.53;1.67;;;;;;;;;;4991916;28;20212;-74
2021/10/25 14:29:13;;;;;;;2.83;1.88;;;;;;;;;;4990960;28;20193;-76
2021/10/25 14:31:44;;;;;;;3.00;1.80;;;;;;;;;;4989819;28;20224;-76
2021/10/25 14:34:11;;;;;;;2.60;1.70;;;;;;;;;;4992052;28;20549;-76
2021/10/25 14:36:40;;;;;;;3.70;1.73;;;;;;;;;;4991137;28;20208;-77
2021/10/25 14:39:13;;;;;;;2.17;1.92;;;;;;;;;;4989409;28;20197;-77
2021/10/25 14:41:52;;;;;;;2.15;1.73;;;;;;;;;;4989598;28;20210;-76
2021/10/25 14:44:29;;;;;;;2.58;2.38;;;;;;;;;;4990454;28;20576;-77
2021/10/25 14:47:08;;;;;;;2.35;1.73;;;;;;;;;;4984992;28;20641;-77
2021/10/25 14:55:07;;;;;;;2.80;2.33;;;;;;;;;;4989089;28;20201;-76
2021/10/25 14:57:34;;;;;;;3.33;1.65;;;;;;;;;;4986460;28;20205;-77
2021/10/25 15:00:01;;;;;;;2.90;1.75;;;;;;;;;;4995271;28;20197;-77
2021/10/25 15:02:30;;;;;;;3.67;1.98;;;;;;;;;;4985363;28;20198;-79
2021/10/25 15:04:59;;;;;;;2.70;1.70;;;;;;;;;;4980909;28;20285;-80
2021/10/25 15:07:26;;;;;;;2.85;1.70;;;;;;;;;;4993068;28;20225;-81
2021/10/25 15:09:54;;;;;;;3.58;2.17;;;;;;;;;;4993398;28;20296;-79
2021/10/25 15:12:23;;;;;;;4.32;2.08;;;;;;;;;;4983830;28;20229;-76
2021/10/25 15:14:50;;;;;;;2.30;1.73;;;;;;;;;;4987537;28;20201;-76
2021/10/25 15:17:17;;;;;;;3.22;2.15;;;;;;;;;;4991156;28;20200;-77
2021/10/25 15:19:46;;;;;;;4.90;1.98;;;;;;;;;;4985432;28;20202;-77
2021/10/25 15:22:14;;;;;;;2.60;1.90;;;;;;;;;;4988233;28;20493;-77
2021/10/25 15:24:46;;;;;;;3.55;2.10;;;;;;;;;;4992819;28;20706;-75
2021/10/25 15:27:14;;;;;;;2.45;1.70;;;;;;;;;;4979768;28;20190;-77
2021/10/25 15:29:42;;;;;;;2.50;1.92;;;;;;;;;;4990639;28;20202;-77
2021/10/25 15:32:09;;;;;;;4.53;1.80;;;;;;;;;;4987147;28;20213;-76
2021/10/25 15:34:36;;;;;;;3.28;1.65;;;;;;;;;;4988093;28;20296;-77
2021/10/25 15:37:05;;;;;;;2.78;2.45;;;;;;;;;;4992116;28;20197;-76
2021/10/25 15:39:32;;;;;;;3.20;1.90;;;;;;;;;;4984427;28;20620;-80
2021/10/25 15:41:59;;;;;;;2.40;2.17;;;;;;;;;;4985795;28;20208;-76
2021/10/25 15:44:26;;;;;;;3.15;2.50;;;;;;;;;;4988505;28;20197;-77
2021/10/25 15:46:53;;;;;;;2.38;2.13;;;;;;;;;;4985966;28;20202;-77
2021/10/25 15:49:20;;;;;;;4.90;2.50;;;;;;;;;;4992468;28;20229;-77
2021/10/25 15:51:49;;;;;;;3.25;2.13;;;;;;;;;;4984500;28;20228;-76
2021/10/25 15:54:18;;;;;;;6.00;2.80;;;;;;;;;;4990588;28;20215;-77
2021/10/25 15:56:46;;;;;;;1.77;1.63;;;;;;;;;;4988161;28;20194;-77
2021/10/25 15:59:14;;;;;;;3.58;2.58;;;;;;;;;;4986679;28;20679;-77
2021/10/25 16:01:41;;;;;;;4.43;1.90;;;;;;;;;;4987907;28;20212;-79
2021/10/25 16:04:08;;;;;;;3.83;2.55;;;;;;;;;;4987775;28;20229;-79
2021/10/25 16:06:35;;;;;;;2.45;1.83;;;;;;;;;;4987437;28;20229;-78
2021/10/25 16:09:02;;;;;;;2.20;1.90;;;;;;;;;;4980242;28;20194;-78
2021/10/25 16:11:31;;;;;;;4.30;2.47;;;;;;;;;;4983411;28;20249;-78
2021/10/25 16:13:58;;;;;;;2.03;1.65;;;;;;;;;;4988392;28;20201;-79
2021/10/25 16:16:25;;;;;;;6.20;2.25;;;;;;;;;;4988297;28;20196;-79
2021/10/25 16:18:52;;;;;;;2.80;2.40;;;;;;;;;;4975246;28;20404;-78